Time;durP1;ratioP1;P1;durP2;ratioP2;P2;SDS_P1;SDS_P2;PMS_P1;PMS_P2;Temp;Humidity;BMP_temperature;BMP_pressure;BME280_temperature;BME280_humidity;BME280_pressure;Samples;Min_cycle;Max_cycle;Signal;HPM_P1;HPM_P2
2024/01/13 00:00:05;;;;;;;11.63;8.48;;;-3.00;99.90;;;;;;5038911;28;20215;-73
2024/01/13 00:02:32;;;;;;;14.25;7.05;;;-3.20;99.90;;;;;;5069556;27;20197;-73
2024/01/13 00:04:58;;;;;;;11.95;6.00;;;-3.20;99.90;;;;;;5056859;27;20212;-73
2024/01/13 00:07:25;;;;;;;20.83;8.35;;;-3.10;99.90;;;;;;5059703;27;20226;-73
2024/01/13 00:09:52;;;;;;;8.45;5.45;;;-3.10;99.90;;;;;;5075532;27;20235;-74
2024/01/13 00:12:19;;;;;;;31.00;10.80;;;-3.10;99.90;;;;;;5066284;27;20192;-73
2024/01/13 00:14:46;;;;;;;12.25;7.68;;;-3.20;99.90;;;;;;5047272;27;20201;-74
2024/01/13 00:17:14;;;;;;;13.95;8.25;;;-3.10;99.90;;;;;;5082842;27;20649;-74
2024/01/13 00:19:40;;;;;;;20.63;8.25;;;-3.10;99.90;;;;;;5046948;28;20195;-73
2024/01/13 00:22:08;;;;;;;17.77;6.68;;;-3.10;99.90;;;;;;5050016;28;20194;-73
2024/01/13 00:24:34;;;;;;;12.68;4.68;;;-3.20;99.90;;;;;;5054195;28;20325;-74
2024/01/13 00:27:01;;;;;;;12.02;8.00;;;-3.30;99.90;;;;;;5082292;27;20322;-74
2024/01/13 00:29:28;;;;;;;17.35;7.63;;;-3.30;99.90;;;;;;5057565;27;20192;-74
2024/01/13 00:31:55;;;;;;;10.68;8.20;;;-3.20;99.90;;;;;;5064621;27;20208;-74
2024/01/13 00:34:23;;;;;;;19.38;7.10;;;-3.20;99.90;;;;;;5060656;27;20544;-74
2024/01/13 00:36:50;;;;;;;10.63;6.47;;;-3.10;99.90;;;;;;5051497;27;20199;-72
2024/01/13 00:39:17;;;;;;;12.63;7.82;;;-3.00;99.90;;;;;;5063740;27;20214;-73
2024/01/13 00:41:43;;;;;;;18.65;8.40;;;-2.90;99.90;;;;;;5053117;28;20551;-73
2024/01/13 00:44:10;;;;;;;16.30;8.57;;;-2.80;99.90;;;;;;5051218;27;20300;-73
2024/01/13 00:46:37;;;;;;;10.77;7.38;;;-2.80;99.90;;;;;;5054643;28;20233;-74
2024/01/13 00:49:04;;;;;;;11.57;9.63;;;-2.60;99.90;;;;;;5049615;28;20554;-74
2024/01/13 00:51:33;;;;;;;9.23;8.15;;;-2.80;99.90;;;;;;5042570;27;20211;-74
2024/01/13 00:54:00;;;;;;;12.88;6.63;;;-2.90;99.90;;;;;;5043379;27;20208;-75
2024/01/13 00:56:27;;;;;;;22.60;10.55;;;-2.70;99.90;;;;;;5037309;28;20257;-75
2024/01/13 00:58:54;;;;;;;11.68;6.93;;;-2.80;99.90;;;;;;5034977;28;20207;-75
2024/01/13 01:01:20;;;;;;;10.95;7.60;;;-3.00;99.90;;;;;;5034004;28;20215;-74
2024/01/13 01:03:48;;;;;;;16.05;7.05;;;-3.00;99.90;;;;;;5033430;28;20327;-75
2024/01/13 01:06:16;;;;;;;14.07;6.75;;;-3.00;99.90;;;;;;5038501;28;20559;-74
2024/01/13 01:08:45;;;;;;;14.82;6.30;;;-3.10;99.90;;;;;;5044772;28;20201;-74
2024/01/13 01:11:14;;;;;;;20.58;12.98;;;-3.10;99.90;;;;;;5040429;28;20212;-75
2024/01/13 01:13:41;;;;;;;11.52;7.00;;;-3.20;99.90;;;;;;5054021;28;20207;-75
2024/01/13 01:16:09;;;;;;;14.32;8.50;;;-3.00;99.90;;;;;;5054246;28;20732;-74
2024/01/13 01:18:35;;;;;;;24.40;10.85;;;-2.80;99.90;;;;;;5057061;28;20257;-75
2024/01/13 01:21:02;;;;;;;13.95;8.95;;;-3.00;99.90;;;;;;5056164;27;20305;-75
2024/01/13 01:23:30;;;;;;;13.73;8.35;;;-3.10;99.90;;;;;;5058500;28;20235;-75
2024/01/13 01:25:58;;;;;;;17.10;8.73;;;-3.00;99.90;;;;;;5048122;28;20308;-75
2024/01/13 01:28:25;;;;;;;11.70;7.00;;;-3.00;99.90;;;;;;5059167;27;20359;-74
2024/01/13 01:30:51;;;;;;;25.48;13.23;;;-3.10;99.90;;;;;;5053492;27;20202;-75
2024/01/13 01:33:18;;;;;;;21.30;8.20;;;-2.90;99.90;;;;;;5055273;28;20205;-75
2024/01/13 01:35:45;;;;;;;16.48;11.40;;;-2.80;99.90;;;;;;5045879;28;20207;-75
2024/01/13 01:38:12;;;;;;;16.88;8.98;;;-2.90;99.90;;;;;;5054518;27;20208;-74
2024/01/13 01:40:40;;;;;;;25.52;12.63;;;-2.90;99.90;;;;;;5063633;27;20691;-74
2024/01/13 01:43:08;;;;;;;13.52;8.52;;;-3.00;99.90;;;;;;5050749;28;20215;-75
2024/01/13 01:45:35;;;;;;;15.45;6.70;;;-2.90;99.90;;;;;;5050634;27;20831;-75
2024/01/13 01:48:08;;;;;;;15.68;8.90;;;-2.90;99.90;;;;;;5047481;27;20711;-75
2024/01/13 01:50:35;;;;;;;18.63;9.77;;;-2.90;99.90;;;;;;5048139;28;20211;-74
2024/01/13 01:53:02;;;;;;;17.55;8.55;;;-2.90;99.90;;;;;;5040920;28;20226;-75
2024/01/13 01:55:29;;;;;;;24.52;12.45;;;-2.90;99.90;;;;;;5046879;28;20208;-75
2024/01/13 01:57:59;;;;;;;14.05;7.85;;;-2.80;99.90;;;;;;5043714;28;20204;-75
2024/01/13 02:00:28;;;;;;;12.82;8.32;;;-2.70;99.90;;;;;;5041733;28;20207;-74
2024/01/13 02:02:55;;;;;;;20.33;6.20;;;-3.10;99.90;;;;;;5043314;27;20551;-75
2024/01/13 02:05:22;;;;;;;39.55;9.80;;;-3.10;99.90;;;;;;5039751;27;20564;-74
2024/01/13 02:07:50;;;;;;;13.57;9.05;;;-3.00;99.90;;;;;;5039877;28;20258;-75
2024/01/13 02:10:18;;;;;;;16.10;8.88;;;-2.90;99.90;;;;;;5056225;28;20670;-75
2024/01/13 02:12:45;;;;;;;17.48;8.90;;;-3.00;99.90;;;;;;5052374;28;20243;-75
2024/01/13 02:15:12;;;;;;;20.02;9.43;;;-2.80;99.90;;;;;;5049115;28;20282;-74
2024/01/13 02:17:41;;;;;;;30.13;9.52;;;-2.70;99.90;;;;;;5062234;28;20563;-74
2024/01/13 02:20:10;;;;;;;11.57;5.80;;;-2.70;99.90;;;;;;5046944;28;20205;-75
2024/01/13 02:22:38;;;;;;;15.35;10.02;;;-2.70;99.90;;;;;;5052870;28;20203;-74
2024/01/13 02:25:07;;;;;;;15.00;5.47;;;-2.70;99.90;;;;;;5047585;28;20559;-74
2024/01/13 02:27:35;;;;;;;15.70;8.93;;;-2.80;99.90;;;;;;5056649;28;20318;-74
2024/01/13 02:30:04;;;;;;;13.18;6.80;;;-2.80;99.90;;;;;;5058234;28;20288;-74
2024/01/13 02:32:32;;;;;;;12.30;7.68;;;-2.70;99.90;;;;;;5048211;27;20196;-74
2024/01/13 02:35:00;;;;;;;18.77;6.13;;;-2.50;99.90;;;;;;5049389;28;20204;-74
2024/01/13 02:37:28;;;;;;;11.40;8.30;;;-2.70;99.90;;;;;;5051112;28;20232;-74
2024/01/13 02:39:59;;;;;;;17.02;8.82;;;-2.70;99.90;;;;;;5049667;28;20559;-74
2024/01/13 02:42:25;;;;;;;10.82;6.85;;;-2.70;99.90;;;;;;5052590;28;20287;-73
2024/01/13 02:44:53;;;;;;;11.90;7.00;;;-2.80;99.90;;;;;;5049958;28;20208;-74
2024/01/13 02:47:29;;;;;;;18.30;8.18;;;-2.70;99.90;;;;;;5009835;28;1062139;-74
2024/01/13 02:49:56;;;;;;;26.85;9.88;;;-2.90;99.90;;;;;;5060430;27;20184;-73
2024/01/13 02:52:23;;;;;;;18.83;9.70;;;-2.70;99.90;;;;;;5045729;27;20226;-74
2024/01/13 02:54:50;;;;;;;10.07;6.75;;;-2.80;99.90;;;;;;5047728;28;20256;-74
2024/01/13 02:57:18;;;;;;;23.65;10.20;;;-2.80;99.90;;;;;;5052104;28;20196;-74
2024/01/13 02:59:46;;;;;;;16.88;9.48;;;-2.70;99.90;;;;;;5048075;27;20606;-74
2024/01/13 03:02:13;;;;;;;14.23;9.38;;;-2.80;99.90;;;;;;5050441;27;20634;-73
2024/01/13 03:04:41;;;;;;;13.07;8.43;;;-2.80;99.90;;;;;;5036344;28;20284;-73
2024/01/13 03:07:08;;;;;;;15.77;9.55;;;-2.80;99.90;;;;;;5050508;27;20221;-73
2024/01/13 03:09:36;;;;;;;15.52;6.70;;;-2.70;99.90;;;;;;5046895;27;20214;-73
2024/01/13 03:12:04;;;;;;;8.45;6.82;;;-2.60;99.90;;;;;;5066959;28;20669;-73
2024/01/13 03:14:33;;;;;;;26.73;9.40;;;-2.60;99.90;;;;;;5057137;27;20208;-73
2024/01/13 03:17:01;;;;;;;24.27;7.95;;;-2.60;99.90;;;;;;5054767;27;20203;-73
2024/01/13 03:19:30;;;;;;;16.85;10.80;;;-2.70;99.90;;;;;;5045162;28;20212;-73
2024/01/13 03:21:57;;;;;;;15.77;10.40;;;-2.70;99.90;;;;;;5058483;28;20202;-73
2024/01/13 03:24:26;;;;;;;16.42;9.77;;;-2.70;99.90;;;;;;5049674;28;20764;-74
2024/01/13 03:26:54;;;;;;;12.25;8.50;;;-2.70;99.90;;;;;;5061016;27;20278;-73
2024/01/13 03:29:21;;;;;;;15.30;8.07;;;-2.60;99.90;;;;;;5056453;28;20744;-73
2024/01/13 03:31:50;;;;;;;20.30;8.13;;;-2.80;99.90;;;;;;5060344;28;20195;-73
2024/01/13 03:34:19;;;;;;;16.73;8.18;;;-2.70;99.90;;;;;;5049714;27;20209;-74
2024/01/13 03:36:46;;;;;;;13.63;10.20;;;-2.70;99.90;;;;;;5060008;28;20438;-74
2024/01/13 03:39:13;;;;;;;11.93;7.38;;;-2.70;99.90;;;;;;5042998;28;20211;-73
2024/01/13 03:41:41;;;;;;;23.20;11.82;;;-2.70;99.90;;;;;;5053954;28;20533;-74
2024/01/13 03:44:09;;;;;;;19.88;9.05;;;-2.60;99.90;;;;;;5041183;27;20229;-74
2024/01/13 03:46:36;;;;;;;9.68;7.00;;;-2.70;99.90;;;;;;5046870;28;20224;-73
2024/01/13 03:49:05;;;;;;;16.40;9.43;;;-2.80;99.90;;;;;;5050481;28;20224;-74
2024/01/13 03:51:32;;;;;;;14.23;8.18;;;-2.60;99.90;;;;;;5064585;27;20211;-73
2024/01/13 03:54:00;;;;;;;12.30;7.10;;;-2.50;99.90;;;;;;5046565;27;20269;-74
2024/01/13 03:56:26;;;;;;;12.82;9.15;;;-2.50;99.90;;;;;;5043564;28;20693;-73
2024/01/13 03:58:53;;;;;;;13.75;7.53;;;-2.60;99.90;;;;;;5045027;27;20204;-74
2024/01/13 04:01:20;;;;;;;13.07;9.15;;;-2.50;99.90;;;;;;5045001;28;20570;-74
2024/01/13 04:03:47;;;;;;;12.70;9.85;;;-2.60;99.90;;;;;;5042504;27;20250;-73
2024/01/13 04:06:15;;;;;;;7.03;6.35;;;-2.80;99.90;;;;;;5048290;28;20291;-73
2024/01/13 04:08:41;;;;;;;14.88;7.38;;;-2.90;99.90;;;;;;5041198;28;20583;-74
2024/01/13 04:11:09;;;;;;;27.27;9.10;;;-2.80;99.90;;;;;;5080994;27;20680;-74
2024/01/13 04:13:36;;;;;;;9.48;4.65;;;-2.80;99.90;;;;;;5096018;27;20284;-73
2024/01/13 04:16:03;;;;;;;15.98;6.85;;;-2.80;99.90;;;;;;5072471;27;21807;-74
2024/01/13 04:18:30;;;;;;;30.77;9.20;;;-2.70;99.90;;;;;;5066344;27;20609;-74
2024/01/13 04:20:56;;;;;;;20.08;7.57;;;-2.80;99.90;;;;;;5084195;27;20214;-73
2024/01/13 04:23:25;;;;;;;11.82;6.43;;;-2.70;99.90;;;;;;5087990;27;20199;-74
2024/01/13 04:25:51;;;;;;;29.20;10.10;;;-2.70;99.90;;;;;;5052108;27;20201;-74
2024/01/13 04:28:18;;;;;;;9.32;7.25;;;-2.80;99.90;;;;;;5075594;27;20252;-74
2024/01/13 04:30:45;;;;;;;11.45;7.07;;;-2.80;99.90;;;;;;5035009;27;20749;-73
2024/01/13 04:33:12;;;;;;;12.90;8.90;;;-2.90;99.90;;;;;;5051896;28;20683;-74
2024/01/13 04:35:38;;;;;;;12.80;7.32;;;-2.90;99.90;;;;;;5045379;28;20683;-74
2024/01/13 04:38:05;;;;;;;23.17;9.10;;;-2.90;99.90;;;;;;5042084;28;20205;-73
2024/01/13 04:40:36;;;;;;;12.70;7.25;;;-2.60;99.90;;;;;;5053780;27;20208;-74
2024/01/13 04:43:03;;;;;;;9.77;6.40;;;-2.70;99.90;;;;;;5058600;28;20860;-74
2024/01/13 04:45:30;;;;;;;14.43;7.13;;;-2.70;99.90;;;;;;5053968;27;20204;-74
2024/01/13 04:47:57;;;;;;;12.38;8.35;;;-2.70;99.90;;;;;;5050047;27;20232;-74
2024/01/13 04:50:24;;;;;;;12.93;8.20;;;-2.80;99.90;;;;;;5078772;27;20232;-73
2024/01/13 04:52:52;;;;;;;17.30;8.95;;;-2.80;99.90;;;;;;5047314;28;20214;-73
2024/01/13 04:55:19;;;;;;;11.63;7.38;;;-2.70;99.90;;;;;;5050339;28;20212;-74
2024/01/13 04:57:47;;;;;;;8.27;7.30;;;-2.70;99.90;;;;;;5056420;27;20202;-74
2024/01/13 05:00:16;;;;;;;15.15;7.40;;;-2.90;99.90;;;;;;5048739;28;20196;-73
2024/01/13 05:02:43;;;;;;;20.58;11.02;;;-3.10;99.90;;;;;;5045936;28;20199;-74
2024/01/13 05:05:09;;;;;;;15.65;7.93;;;-3.10;99.90;;;;;;5043044;27;20287;-73
2024/01/13 05:07:38;;;;;;;15.48;10.30;;;-3.10;99.90;;;;;;5045469;28;20227;-74
2024/01/13 05:10:07;;;;;;;15.48;6.75;;;-3.10;99.90;;;;;;5051188;27;20208;-73
2024/01/13 05:12:33;;;;;;;16.50;8.15;;;-3.20;99.90;;;;;;5048936;27;20196;-74
2024/01/13 05:15:02;;;;;;;18.33;8.00;;;-3.10;99.90;;;;;;5038491;27;20192;-74
2024/01/13 05:17:28;;;;;;;16.98;9.65;;;-2.90;99.90;;;;;;5043393;28;20216;-73
2024/01/13 05:19:55;;;;;;;17.92;9.50;;;-2.80;99.90;;;;;;5039695;28;20197;-74
2024/01/13 05:22:22;;;;;;;9.15;7.85;;;-2.80;99.90;;;;;;5040211;28;20533;-73
2024/01/13 05:24:49;;;;;;;14.20;6.68;;;-3.00;99.90;;;;;;5040122;27;20859;-74
2024/01/13 05:27:16;;;;;;;16.67;9.88;;;-3.10;99.90;;;;;;5049684;28;20215;-73
2024/01/13 05:29:42;;;;;;;25.08;8.05;;;-3.10;99.90;;;;;;5050252;28;20552;-73
2024/01/13 05:32:10;;;;;;;9.02;5.95;;;-3.10;99.90;;;;;;5060313;28;20204;-74
2024/01/13 05:34:37;;;;;;;16.10;8.13;;;-2.90;99.90;;;;;;5057582;28;20196;-73
2024/01/13 05:37:05;;;;;;;13.52;6.90;;;-2.90;99.90;;;;;;5061341;28;20216;-74
2024/01/13 05:39:32;;;;;;;9.25;7.40;;;-3.00;99.90;;;;;;5056974;27;20198;-74
2024/01/13 05:41:59;;;;;;;11.15;8.10;;;-3.00;99.90;;;;;;5053679;28;20739;-73
2024/01/13 05:44:26;;;;;;;23.23;10.27;;;-3.00;99.90;;;;;;5048455;28;20207;-74
2024/01/13 05:46:52;;;;;;;16.38;8.60;;;-3.00;99.90;;;;;;5058646;28;20202;-74
2024/01/13 05:49:21;;;;;;;17.63;9.52;;;-3.10;99.90;;;;;;5049091;28;20238;-73
2024/01/13 05:51:47;;;;;;;16.02;6.68;;;-3.00;99.90;;;;;;5058432;27;20204;-73
2024/01/13 05:54:14;;;;;;;19.10;10.00;;;-2.90;99.90;;;;;;5043127;28;20200;-73
2024/01/13 05:56:41;;;;;;;27.60;9.30;;;-3.00;99.90;;;;;;5050677;28;20208;-73
2024/01/13 05:59:08;;;;;;;17.58;8.43;;;-3.00;99.90;;;;;;5046309;28;20642;-74
2024/01/13 06:01:35;;;;;;;21.33;11.52;;;-3.00;99.90;;;;;;5045968;28;20205;-74
2024/01/13 06:04:01;;;;;;;14.18;9.43;;;-2.90;99.90;;;;;;5045763;28;20288;-74
2024/01/13 06:06:29;;;;;;;10.43;7.32;;;-3.00;99.90;;;;;;5055279;28;20266;-73
2024/01/13 06:08:56;;;;;;;10.80;8.23;;;-3.20;99.90;;;;;;5050520;27;20201;-74
2024/01/13 06:11:23;;;;;;;16.02;8.68;;;-3.20;99.90;;;;;;5049326;28;20201;-74
2024/01/13 06:13:50;;;;;;;15.55;11.85;;;-3.10;99.90;;;;;;5050441;28;20201;-74
2024/01/13 06:16:17;;;;;;;10.57;7.35;;;-3.10;99.90;;;;;;5043066;28;20215;-73
2024/01/13 06:18:44;;;;;;;23.85;7.63;;;-3.10;99.90;;;;;;5052388;28;20712;-74
2024/01/13 06:21:11;;;;;;;11.70;9.38;;;-3.20;99.90;;;;;;5036220;28;20688;-73
2024/01/13 06:23:39;;;;;;;26.95;10.23;;;-3.10;99.90;;;;;;5050874;28;20208;-73
2024/01/13 06:26:05;;;;;;;12.38;9.82;;;-3.20;99.90;;;;;;5036974;27;20197;-72
2024/01/13 06:28:32;;;;;;;18.25;9.63;;;-3.20;99.90;;;;;;5055768;28;20223;-75
2024/01/13 06:30:59;;;;;;;16.75;7.80;;;-3.30;99.90;;;;;;5056569;28;20609;-77
2024/01/13 06:33:26;;;;;;;11.43;6.97;;;-3.30;99.90;;;;;;5059267;28;20196;-78
2024/01/13 06:35:52;;;;;;;13.40;9.07;;;-3.40;99.90;;;;;;5055579;27;20279;-76
2024/01/13 06:38:19;;;;;;;13.55;7.10;;;-3.40;99.90;;;;;;5048979;28;20204;-76
2024/01/13 06:40:47;;;;;;;11.13;6.80;;;-3.50;99.90;;;;;;5047359;28;20201;-75
2024/01/13 06:43:14;;;;;;;13.75;6.57;;;-3.50;99.90;;;;;;5050378;28;20205;-76
2024/01/13 06:45:41;;;;;;;15.75;8.60;;;-3.30;99.90;;;;;;5056563;27;20271;-76
2024/01/13 06:48:08;;;;;;;15.80;10.73;;;-3.30;99.90;;;;;;5060637;27;20247;-76
2024/01/13 06:50:34;;;;;;;14.88;7.82;;;-3.30;99.90;;;;;;5061547;27;20287;-76
2024/01/13 06:53:01;;;;;;;26.90;9.55;;;-3.40;99.90;;;;;;5052510;28;20200;-79
2024/01/13 06:55:28;;;;;;;8.13;6.88;;;-3.40;99.90;;;;;;5050021;28;20625;-79
2024/01/13 06:57:56;;;;;;;13.15;7.85;;;-3.40;99.90;;;;;;5045234;28;20468;-79
2024/01/13 07:00:23;;;;;;;19.13;6.78;;;-3.40;99.90;;;;;;5053223;28;20311;-79
2024/01/13 07:02:50;;;;;;;9.80;6.60;;;-3.40;99.90;;;;;;5045215;28;20246;-79
2024/01/13 07:05:17;;;;;;;14.93;5.10;;;-3.50;99.90;;;;;;5040448;28;20204;-76
2024/01/13 07:07:43;;;;;;;17.13;8.88;;;-3.50;99.90;;;;;;5040520;28;20209;-72
2024/01/13 07:10:10;;;;;;;18.50;7.65;;;-3.50;99.90;;;;;;5041309;28;20221;-75
2024/01/13 07:12:38;;;;;;;12.07;6.78;;;-3.40;99.90;;;;;;5043947;28;20213;-75
2024/01/13 07:15:07;;;;;;;17.88;9.77;;;-3.50;99.90;;;;;;5037036;27;20204;-74
2024/01/13 07:17:35;;;;;;;14.27;6.30;;;-3.40;99.90;;;;;;5040037;28;20249;-74
2024/01/13 07:20:02;;;;;;;30.73;8.40;;;-3.30;99.90;;;;;;5038298;28;20284;-74
2024/01/13 07:22:30;;;;;;;12.15;9.40;;;-3.40;99.90;;;;;;5032901;28;20266;-75
2024/01/13 07:24:56;;;;;;;9.23;6.43;;;-3.40;99.90;;;;;;5032723;27;20229;-72
2024/01/13 07:27:23;;;;;;;12.80;4.85;;;-3.40;99.90;;;;;;5032323;28;20217;-73
2024/01/13 07:29:50;;;;;;;18.00;5.53;;;-3.50;99.90;;;;;;5030648;28;20240;-74
2024/01/13 07:32:18;;;;;;;13.40;7.47;;;-3.50;99.90;;;;;;5066832;27;20210;-74
2024/01/13 07:34:45;;;;;;;10.07;4.97;;;-3.50;99.90;;;;;;5057028;28;20214;-73
2024/01/13 07:37:12;;;;;;;11.45;10.45;;;-3.50;99.90;;;;;;5059207;28;20284;-75
2024/01/13 07:39:39;;;;;;;17.20;9.30;;;-3.20;99.90;;;;;;5057739;28;20690;-74
2024/01/13 07:42:06;;;;;;;12.48;7.38;;;-3.30;99.90;;;;;;5044596;28;20215;-74
2024/01/13 07:44:32;;;;;;;15.57;8.02;;;-3.20;99.90;;;;;;5051614;28;20208;-74
2024/01/13 07:47:01;;;;;;;9.60;6.13;;;-3.20;99.90;;;;;;5046454;28;20216;-74
2024/01/13 07:49:29;;;;;;;15.48;7.25;;;-3.10;99.90;;;;;;5053091;27;20209;-73
2024/01/13 07:51:56;;;;;;;15.23;8.38;;;-3.30;99.90;;;;;;5050343;28;20206;-82
2024/01/13 07:54:23;;;;;;;9.18;4.40;;;-3.20;99.90;;;;;;5053039;28;20211;-75
2024/01/13 07:56:51;;;;;;;11.70;7.05;;;-3.10;99.90;;;;;;5046850;28;20198;-75
2024/01/13 07:59:18;;;;;;;13.10;6.40;;;-3.00;99.90;;;;;;5046980;28;20216;-75
2024/01/13 08:01:45;;;;;;;11.82;7.18;;;-3.00;99.90;;;;;;5050988;28;20204;-75
2024/01/13 08:04:13;;;;;;;19.17;7.60;;;-3.20;99.90;;;;;;5040714;28;20295;-76
2024/01/13 08:06:41;;;;;;;15.48;7.55;;;-3.10;99.90;;;;;;5048579;28;20207;-75
2024/01/13 08:09:08;;;;;;;9.95;6.50;;;-2.90;99.90;;;;;;5049372;27;20235;-75
2024/01/13 08:11:35;;;;;;;12.85;7.07;;;-2.70;99.90;;;;;;5048650;28;20212;-77
2024/01/13 08:14:01;;;;;;;7.75;4.28;;;-2.60;99.90;;;;;;5040331;28;20208;-78
2024/01/13 08:16:29;;;;;;;9.82;6.53;;;-2.60;99.90;;;;;;5041929;28;20218;-78
2024/01/13 08:18:56;;;;;;;12.80;7.45;;;-2.70;99.90;;;;;;5042222;28;20202;-78
2024/01/13 08:21:22;;;;;;;15.32;7.90;;;-2.80;99.90;;;;;;5048353;28;20204;-78
2024/01/13 08:23:50;;;;;;;9.27;6.25;;;-2.60;99.90;;;;;;5038335;28;20291;-78
2024/01/13 08:26:17;;;;;;;9.13;5.25;;;-2.70;99.90;;;;;;5044271;28;20872;-78
2024/01/13 08:28:44;;;;;;;12.50;8.57;;;-2.70;99.90;;;;;;5052774;28;20288;-78
2024/01/13 08:31:11;;;;;;;13.18;7.30;;;-2.80;99.90;;;;;;5060029;27;20214;-77
2024/01/13 08:33:38;;;;;;;7.47;5.00;;;-2.90;99.90;;;;;;5050083;28;20212;-76
2024/01/13 08:36:05;;;;;;;16.83;6.88;;;-2.90;99.90;;;;;;5048305;28;20200;-76
2024/01/13 08:38:32;;;;;;;8.80;6.18;;;-2.80;99.90;;;;;;5062421;27;20287;-76
2024/01/13 08:41:00;;;;;;;17.70;7.85;;;-3.00;99.90;;;;;;5060562;27;20203;-76
2024/01/13 08:43:27;;;;;;;6.38;4.45;;;-2.90;99.90;;;;;;5046004;28;20204;-76
2024/01/13 08:45:54;;;;;;;14.02;5.45;;;-2.60;99.90;;;;;;5059195;28;20203;-76
2024/01/13 08:48:20;;;;;;;13.60;8.88;;;-2.80;99.90;;;;;;5047731;27;20219;-76
2024/01/13 08:50:47;;;;;;;9.70;6.68;;;-2.80;99.90;;;;;;5078122;27;20703;-75
2024/01/13 08:53:14;;;;;;;17.25;9.32;;;-2.80;99.90;;;;;;5053570;28;20542;-76
2024/01/13 08:55:41;;;;;;;8.93;5.43;;;-2.70;99.90;;;;;;5055724;28;20230;-76
2024/01/13 08:58:09;;;;;;;15.48;7.68;;;-2.80;99.90;;;;;;5049159;27;20287;-76
2024/01/13 09:00:36;;;;;;;12.77;6.20;;;-2.60;99.90;;;;;;5056197;28;20207;-76
2024/01/13 09:03:03;;;;;;;13.80;6.15;;;-2.60;99.90;;;;;;5048864;28;20286;-76
2024/01/13 09:05:29;;;;;;;14.70;6.70;;;-2.70;99.90;;;;;;5048042;28;20291;-76
2024/01/13 09:07:57;;;;;;;10.32;5.82;;;-2.70;99.90;;;;;;5048212;28;20287;-77
2024/01/13 09:10:24;;;;;;;19.38;5.75;;;-2.90;99.90;;;;;;5047773;27;20883;-76
2024/01/13 09:12:51;;;;;;;6.43;4.57;;;-3.00;99.90;;;;;;5049288;28;20704;-76
2024/01/13 09:15:19;;;;;;;17.15;7.32;;;-2.90;99.90;;;;;;5035930;27;20566;-76
2024/01/13 09:17:46;;;;;;;9.90;6.68;;;-3.00;99.90;;;;;;5059419;27;20208;-77
2024/01/13 09:20:13;;;;;;;7.75;6.97;;;-3.00;99.90;;;;;;5046800;28;20292;-77
2024/01/13 09:22:40;;;;;;;12.32;6.13;;;-3.00;99.90;;;;;;5061151;27;20211;-76
2024/01/13 09:25:08;;;;;;;11.68;5.03;;;-2.90;99.90;;;;;;5063750;27;20209;-77
2024/01/13 09:27:35;;;;;;;5.43;4.35;;;-2.90;99.90;;;;;;5057029;28;20209;-76
2024/01/13 09:30:02;;;;;;;8.88;3.10;;;-2.90;99.90;;;;;;5052953;28;20209;-76
2024/01/13 09:32:30;;;;;;;9.70;5.18;;;-2.90;99.90;;;;;;5041415;28;20338;-77
2024/01/13 09:34:58;;;;;;;13.95;5.25;;;-3.00;99.90;;;;;;5041324;28;20575;-76
2024/01/13 09:37:24;;;;;;;9.32;5.90;;;-2.90;99.90;;;;;;5036350;28;20201;-76
2024/01/13 09:39:51;;;;;;;11.40;6.72;;;-2.90;99.90;;;;;;5043769;28;20288;-76
2024/01/13 09:42:28;;;;;;;9.35;5.28;;;-2.80;99.90;;;;;;5040117;28;20209;-76
2024/01/13 09:44:55;;;;;;;9.88;5.97;;;-2.60;99.90;;;;;;5035371;27;20209;-77
2024/01/13 09:47:22;;;;;;;11.13;5.78;;;-2.60;99.90;;;;;;5037710;28;20333;-77
2024/01/13 09:49:54;;;;;;;18.77;4.93;;;-2.70;99.90;;;;;;5073056;27;20300;-77
2024/01/13 09:52:22;;;;;;;4.70;3.08;;;-2.60;99.90;;;;;;5067188;27;20675;-77
2024/01/13 09:54:53;;;;;;;11.50;6.43;;;-2.50;99.90;;;;;;5060780;27;20199;-77
2024/01/13 09:57:20;;;;;;;8.05;5.22;;;-2.60;99.90;;;;;;5054094;27;20212;-77
2024/01/13 09:59:47;;;;;;;6.20;3.85;;;-2.50;99.90;;;;;;5054167;28;20199;-77
2024/01/13 10:02:14;;;;;;;10.68;4.03;;;-2.60;99.90;;;;;;5052586;28;20643;-76
2024/01/13 10:04:41;;;;;;;4.35;3.95;;;-2.60;99.90;;;;;;5050893;28;20208;-76
2024/01/13 10:07:09;;;;;;;1.92;1.80;;;-2.60;99.90;;;;;;5050426;28;20216;-76
2024/01/13 10:09:37;;;;;;;3.97;3.55;;;-2.70;99.90;;;;;;5052505;28;20241;-77
2024/01/13 10:12:08;;;;;;;6.40;3.47;;;-2.70;99.90;;;;;;5042233;27;20195;-77
2024/01/13 10:14:35;;;;;;;12.65;4.63;;;-2.70;99.90;;;;;;5038952;28;20616;-76
2024/01/13 10:17:03;;;;;;;7.47;4.28;;;-2.70;99.90;;;;;;5063133;27;20196;-77
2024/01/13 10:19:30;;;;;;;6.15;3.85;;;-2.60;99.90;;;;;;5049029;28;20207;-76
2024/01/13 10:21:57;;;;;;;5.95;3.15;;;-2.50;99.90;;;;;;5059995;27;20211;-76
2024/01/13 10:24:25;;;;;;;10.00;4.40;;;-2.60;99.90;;;;;;5038544;28;20213;-76
2024/01/13 10:26:52;;;;;;;2.67;2.33;;;-2.60;99.90;;;;;;5055369;27;20211;-76
2024/01/13 10:29:20;;;;;;;3.92;3.47;;;-2.60;99.90;;;;;;5055991;27;20576;-76
2024/01/13 10:31:50;;;;;;;7.85;6.15;;;-2.60;99.90;;;;;;5059316;28;20200;-77
2024/01/13 10:34:18;;;;;;;6.30;3.80;;;-2.70;99.90;;;;;;5055832;28;20291;-77
2024/01/13 10:36:45;;;;;;;5.15;4.35;;;-2.60;99.90;;;;;;5072860;27;20208;-77
2024/01/13 10:39:11;;;;;;;4.47;3.95;;;-2.60;99.90;;;;;;5052330;28;20216;-77
2024/01/13 10:41:44;;;;;;;9.50;4.68;;;-2.60;99.90;;;;;;5059373;28;20636;-77
2024/01/13 10:44:13;;;;;;;8.43;4.90;;;-2.50;99.90;;;;;;5058143;27;20237;-77
2024/01/13 10:46:44;;;;;;;5.38;3.80;;;-2.50;99.90;;;;;;5053833;27;20652;-77
2024/01/13 10:49:14;;;;;;;3.35;2.80;;;-2.50;99.90;;;;;;5062302;28;20286;-77
2024/01/13 10:51:43;;;;;;;5.80;3.97;;;-2.50;99.90;;;;;;5052833;28;20207;-76
2024/01/13 10:54:12;;;;;;;8.13;3.10;;;-2.70;99.90;;;;;;5050380;28;20237;-76
2024/01/13 10:56:41;;;;;;;4.00;3.63;;;-2.60;99.90;;;;;;5051466;28;20576;-76
2024/01/13 10:59:09;;;;;;;5.53;4.97;;;-2.70;99.90;;;;;;5051514;27;20295;-76
2024/01/13 11:01:37;;;;;;;4.82;2.50;;;-2.70;99.90;;;;;;5058663;28;20254;-77
2024/01/13 11:04:05;;;;;;;9.90;4.45;;;-2.70;99.90;;;;;;5054288;28;20204;-77
2024/01/13 11:06:32;;;;;;;6.05;3.55;;;-2.60;99.90;;;;;;5054927;28;20216;-77
2024/01/13 11:09:01;;;;;;;8.23;4.68;;;-2.50;99.90;;;;;;5045330;27;20214;-77
2024/01/13 11:11:32;;;;;;;6.60;3.80;;;-2.50;99.90;;;;;;5047732;28;20235;-77
2024/01/13 11:14:06;;;;;;;4.15;3.72;;;-2.40;99.90;;;;;;5051374;28;20248;-76
2024/01/13 11:16:36;;;;;;;7.07;3.05;;;-2.40;99.90;;;;;;5042781;28;20659;-78
2024/01/13 11:19:03;;;;;;;7.00;5.38;;;-2.50;99.90;;;;;;5043045;28;20292;-77
2024/01/13 11:21:32;;;;;;;19.00;5.00;;;-2.40;99.90;;;;;;5039637;28;20214;-78
2024/01/13 11:24:07;;;;;;;8.52;4.65;;;-2.40;99.90;;;;;;5042153;28;20206;-77
2024/01/13 11:26:37;;;;;;;7.57;4.32;;;-2.30;99.90;;;;;;5042637;27;20212;-77
2024/01/13 11:29:15;;;;;;;2.95;2.70;;;-2.30;99.90;;;;;;5037223;28;20221;-78
2024/01/13 11:31:44;;;;;;;6.90;3.40;;;-2.40;99.90;;;;;;5047121;28;20565;-75
2024/01/13 11:34:12;;;;;;;6.18;5.68;;;-2.30;99.90;;;;;;5059472;27;20201;-78
2024/01/13 11:36:41;;;;;;;3.72;2.30;;;-2.30;99.90;;;;;;5064602;28;20207;-78
2024/01/13 11:39:09;;;;;;;4.85;3.67;;;-2.20;99.90;;;;;;5048801;28;20223;-77
2024/01/13 11:41:40;;;;;;;9.55;3.92;;;-2.40;99.90;;;;;;5051972;28;20200;-78
2024/01/13 11:44:10;;;;;;;4.72;3.60;;;-2.30;99.90;;;;;;5061471;28;20203;-78
2024/01/13 11:46:38;;;;;;;10.50;4.32;;;-1.90;99.90;;;;;;5051555;28;20203;-78
2024/01/13 11:49:05;;;;;;;3.75;3.33;;;-1.80;99.90;;;;;;5044297;28;20639;-78
2024/01/13 11:52:06;;;;;;;6.38;5.75;;;-1.70;99.90;;;;;;5047411;28;20567;-77
2024/01/13 11:54:34;;;;;;;6.07;3.75;;;-1.80;99.90;;;;;;5068384;28;20235;-77
2024/01/13 11:57:03;;;;;;;9.10;5.78;;;-1.60;99.90;;;;;;5073795;28;20200;-77
2024/01/13 11:59:31;;;;;;;8.65;5.22;;;-1.60;99.90;;;;;;5077103;27;20682;-77
2024/01/13 12:01:58;;;;;;;3.67;3.13;;;-1.40;99.90;;;;;;5051598;28;20249;-78
2024/01/13 12:04:26;;;;;;;7.47;4.38;;;-1.70;99.90;;;;;;5056232;28;20660;-77
2024/01/13 12:06:54;;;;;;;10.77;3.50;;;-2.00;99.90;;;;;;5057710;28;20579;-78
2024/01/13 12:09:23;;;;;;;5.03;4.47;;;-2.20;99.90;;;;;;5054707;28;20216;-78
2024/01/13 12:11:54;;;;;;;10.82;4.25;;;-2.00;99.90;;;;;;5054967;28;20234;-78
2024/01/13 12:14:25;;;;;;;6.53;3.70;;;-2.00;99.90;;;;;;5048340;28;20208;-78
2024/01/13 12:16:54;;;;;;;8.77;5.10;;;-2.00;99.90;;;;;;5047112;28;20208;-77
2024/01/13 12:19:21;;;;;;;3.92;3.60;;;-2.00;99.90;;;;;;5051651;28;20211;-77
2024/01/13 12:21:48;;;;;;;5.88;3.70;;;-2.10;99.90;;;;;;5051889;28;20208;-77
2024/01/13 12:24:15;;;;;;;5.93;4.15;;;-2.10;99.90;;;;;;5043330;28;20205;-77
2024/01/13 12:26:42;;;;;;;4.90;3.05;;;-2.00;99.90;;;;;;5037328;27;20300;-77
2024/01/13 12:29:09;;;;;;;6.63;3.00;;;-2.10;99.90;;;;;;5042335;28;20219;-76
2024/01/13 12:31:36;;;;;;;6.25;3.90;;;-2.00;99.90;;;;;;5042963;28;20385;-76
2024/01/13 12:34:11;;;;;;;4.80;3.40;;;-1.90;99.90;;;;;;5049317;28;20206;-76
2024/01/13 12:36:38;;;;;;;5.40;4.22;;;-1.90;99.90;;;;;;5063496;28;20219;-76
2024/01/13 12:39:05;;;;;;;4.72;4.25;;;-1.90;99.90;;;;;;5064652;27;20204;-77